createdAt,value
2023-04-25T00:02:00.875Z,0.85
2023-04-25T00:04:28.968Z,0.82
2023-04-25T00:06:57.006Z,0.85
2023-04-25T00:09:24.559Z,1.08
2023-04-25T00:11:52.364Z,1.00
2023-04-25T00:14:20.019Z,0.65
2023-04-25T00:16:47.492Z,1.30
2023-04-25T00:19:15.273Z,1.15
2023-04-25T00:21:42.905Z,1.10
2023-04-25T00:24:10.599Z,1.00
2023-04-25T00:26:38.587Z,1.10
2023-04-25T00:29:06.475Z,1.25
2023-04-25T00:31:34.094Z,1.30
2023-04-25T00:34:02.141Z,1.52
2023-04-25T00:36:29.707Z,1.27
2023-04-25T00:38:57.244Z,1.60
2023-04-25T00:41:26.936Z,1.40
2023-04-25T00:43:55.810Z,1.40
2023-04-25T00:46:23.477Z,1.40
2023-04-25T00:48:51.830Z,1.50
2023-04-25T00:51:21.860Z,1.48
2023-04-25T00:53:51.153Z,1.67
2023-04-25T00:56:19.603Z,2.08
2023-04-25T00:58:47.122Z,1.73
2023-04-25T01:01:14.841Z,1.50
2023-04-25T01:03:42.985Z,1.70
2023-04-25T01:06:11.545Z,1.65
2023-04-25T01:08:39.955Z,1.67
2023-04-25T01:11:08.688Z,1.70
2023-04-25T01:13:36.808Z,1.80
2023-04-25T01:16:05.915Z,2.25
2023-04-25T01:18:34.208Z,1.98
2023-04-25T01:21:09.749Z,1.80
2023-04-25T01:23:39.628Z,1.87
2023-04-25T01:26:08.860Z,2.00
2023-04-25T01:28:37.245Z,2.05
2023-04-25T01:31:05.363Z,1.67
2023-04-25T01:33:33.114Z,2.65
2023-04-25T01:36:01.101Z,1.90
2023-04-25T01:38:29.051Z,2.30
2023-04-25T01:40:57.081Z,2.08
2023-04-25T01:43:24.815Z,2.00
2023-04-25T01:45:52.927Z,1.83
2023-04-25T01:48:20.665Z,1.70
2023-04-25T01:50:48.487Z,1.60
2023-04-25T01:53:16.735Z,2.12
2023-04-25T01:55:44.446Z,1.58
2023-04-25T01:58:13.888Z,2.00
2023-04-25T02:00:42.602Z,1.90
2023-04-25T02:03:10.610Z,1.97
2023-04-25T02:05:39.896Z,1.58
2023-04-25T02:08:09.055Z,2.10
2023-04-25T02:10:37.434Z,2.00
2023-04-25T02:13:06.367Z,2.03
2023-04-25T02:15:34.589Z,1.67
2023-04-25T02:18:02.997Z,1.75
2023-04-25T02:20:31.658Z,2.10
2023-04-25T02:22:59.227Z,1.85
2023-04-25T02:25:28.878Z,1.75
2023-04-25T02:27:56.601Z,1.60
2023-04-25T02:30:24.470Z,2.03
2023-04-25T02:32:52.168Z,1.70
2023-04-25T02:35:19.950Z,1.92
2023-04-25T02:37:47.898Z,1.87
2023-04-25T02:40:16.322Z,1.80
2023-04-25T02:42:43.874Z,1.50
2023-04-25T02:45:11.805Z,1.62
2023-04-25T02:47:39.445Z,1.98
2023-04-25T02:50:07.697Z,1.87
2023-04-25T02:52:36.395Z,2.00
2023-04-25T02:55:04.509Z,1.50
2023-04-25T02:57:32.971Z,1.48
2023-04-25T03:00:00.914Z,1.95
2023-04-25T03:02:28.580Z,1.70
2023-04-25T03:04:56.265Z,1.87
2023-04-25T03:07:24.008Z,1.67
2023-04-25T03:09:51.831Z,2.15
2023-04-25T03:12:19.675Z,1.77
2023-04-25T03:14:47.448Z,2.28
2023-04-25T03:17:17.105Z,1.83
2023-04-25T03:19:44.692Z,1.90
2023-04-25T03:22:12.761Z,1.80
2023-04-25T03:24:44.350Z,1.70
2023-04-25T03:27:12.247Z,1.87
2023-04-25T03:29:39.814Z,1.77
2023-04-25T03:32:07.438Z,2.20
2023-04-25T03:34:35.234Z,2.05
2023-04-25T03:37:02.930Z,1.92
2023-04-25T03:39:31.178Z,2.08
2023-04-25T03:41:59.164Z,2.03
2023-04-25T03:44:29.098Z,2.05
2023-04-25T03:46:56.829Z,2.22
2023-04-25T03:49:25.918Z,2.10
2023-04-25T03:51:54.218Z,1.60
2023-04-25T03:54:21.785Z,2.03
2023-04-25T03:56:51.215Z,1.73
2023-04-25T03:59:19.054Z,2.28
2023-04-25T04:01:46.641Z,2.03
2023-04-25T04:04:14.668Z,2.35
2023-04-25T04:06:43.254Z,1.80
2023-04-25T04:09:12.333Z,2.28
2023-04-25T04:11:40.651Z,2.00
2023-04-25T04:14:08.750Z,1.77
2023-04-25T04:16:36.879Z,2.22
2023-04-25T04:19:04.754Z,1.90
2023-04-25T04:21:33.011Z,2.60
2023-04-25T04:24:01.669Z,2.25
2023-04-25T04:26:30.007Z,2.30
2023-04-25T04:28:57.759Z,2.58
2023-04-25T04:31:26.162Z,2.07
2023-04-25T04:33:54.119Z,2.40
2023-04-25T04:36:22.919Z,2.15
2023-04-25T04:38:50.797Z,2.17
2023-04-25T04:41:20.564Z,2.40
2023-04-25T04:43:48.746Z,2.23
2023-04-25T04:46:17.368Z,2.40
2023-04-25T04:48:45.610Z,2.45
2023-04-25T04:51:13.812Z,2.62
2023-04-25T04:53:41.496Z,2.60
2023-04-25T04:56:09.699Z,2.93
2023-04-25T04:58:37.875Z,2.35
2023-04-25T05:01:06.147Z,2.70
2023-04-25T05:03:34.555Z,2.80
2023-04-25T05:06:02.471Z,2.55
2023-04-25T05:08:30.393Z,2.53
2023-04-25T05:10:59.594Z,2.45
2023-04-25T05:13:27.420Z,2.65
2023-04-25T05:15:55.974Z,2.45
2023-04-25T05:18:23.910Z,3.45
2023-04-25T05:20:54.400Z,2.50
2023-04-25T05:23:22.476Z,2.53
2023-04-25T05:25:50.693Z,2.90
2023-04-25T05:28:18.285Z,2.53
2023-04-25T05:30:45.986Z,2.55
2023-04-25T05:33:15.696Z,2.70
2023-04-25T05:35:43.607Z,2.50
2023-04-25T05:38:12.306Z,2.90
2023-04-25T05:40:51.055Z,2.72
2023-04-25T05:43:18.960Z,2.97
2023-04-25T05:45:47.846Z,2.77
2023-04-25T05:48:19.963Z,2.87
2023-04-25T05:50:49.219Z,2.80
2023-04-25T05:53:17.292Z,2.95
2023-04-25T05:55:44.890Z,2.90
2023-04-25T05:58:14.336Z,2.90
2023-04-25T06:00:42.703Z,2.85
2023-04-25T06:03:10.993Z,2.58
2023-04-25T06:05:38.885Z,3.35
2023-04-25T06:08:06.548Z,2.87
2023-04-25T06:10:34.486Z,2.97
2023-04-25T06:13:02.126Z,2.80
2023-04-25T06:15:30.791Z,2.72
2023-04-25T06:17:58.615Z,3.40
2023-04-25T06:20:26.558Z,3.28
2023-04-25T06:22:54.642Z,2.93
2023-04-25T06:25:22.703Z,3.25
2023-04-25T06:27:50.287Z,3.10
2023-04-25T06:30:23.329Z,2.80
2023-04-25T06:32:51.554Z,3.17
2023-04-25T06:35:19.417Z,2.90
2023-04-25T06:37:47.010Z,2.97
2023-04-25T06:40:15.877Z,3.10
2023-04-25T06:42:43.531Z,2.62
2023-04-25T06:45:17.537Z,3.28
2023-04-25T06:47:46.192Z,2.63
2023-04-25T06:50:13.942Z,2.42
2023-04-25T06:52:41.526Z,3.45
2023-04-25T06:55:09.952Z,3.10
2023-04-25T06:57:38.086Z,3.30
2023-04-25T07:00:10.480Z,3.00
2023-04-25T07:02:39.183Z,3.53
2023-04-25T07:05:07.372Z,3.22
2023-04-25T07:07:34.884Z,3.08
2023-04-25T07:10:03.871Z,3.03
2023-04-25T07:12:31.584Z,3.00
2023-04-25T07:14:59.626Z,3.03
2023-04-25T07:17:27.722Z,3.00
2023-04-25T07:19:55.557Z,2.80
2023-04-25T07:22:23.194Z,3.12
2023-04-25T07:24:51.281Z,3.23
2023-04-25T07:27:20.367Z,2.67
2023-04-25T07:29:48.220Z,3.22
2023-04-25T07:32:16.305Z,3.05
2023-04-25T07:34:44.045Z,2.78
2023-04-25T07:37:12.047Z,2.70
2023-04-25T07:39:40.774Z,2.95
2023-04-25T07:42:09.173Z,2.17
2023-04-25T07:44:41.212Z,2.92
2023-04-25T07:47:10.002Z,3.25
2023-04-25T07:49:38.341Z,2.67
2023-04-25T07:52:09.706Z,3.33
2023-04-25T07:54:38.725Z,2.85
2023-04-25T07:57:09.873Z,3.25
2023-04-25T07:59:38.014Z,3.08
2023-04-25T08:02:06.473Z,3.27
2023-04-25T08:04:34.973Z,2.72
2023-04-25T08:07:02.895Z,3.00
2023-04-25T08:09:34.877Z,3.05
2023-04-25T08:12:04.193Z,3.03
2023-04-25T08:14:36.763Z,3.37
2023-04-25T08:17:05.436Z,3.10
2023-04-25T08:19:33.378Z,2.83
2023-04-25T08:22:02.257Z,3.10
2023-04-25T08:24:30.404Z,3.37
2023-04-25T08:27:00.042Z,3.37
2023-04-25T08:29:29.491Z,3.25
2023-04-25T08:31:57.833Z,3.03
2023-04-25T08:34:26.542Z,2.92
2023-04-25T08:36:54.165Z,3.35
2023-04-25T08:39:22.445Z,3.43
2023-04-25T08:41:51.533Z,3.30
2023-04-25T08:44:20.661Z,3.50
2023-04-25T08:46:51.137Z,3.15
2023-04-25T08:49:20.080Z,3.50
2023-04-25T08:51:48.514Z,3.50
2023-04-25T08:54:30.794Z,3.42
2023-04-25T08:57:05.247Z,3.45
2023-04-25T08:59:33.966Z,3.37
2023-04-25T09:02:02.722Z,2.97
2023-04-25T09:04:34.501Z,3.50
2023-04-25T09:07:02.021Z,3.70
2023-04-25T09:09:30.434Z,3.30
2023-04-25T09:11:59.105Z,2.95
2023-04-25T09:14:28.951Z,2.97
2023-04-25T09:16:58.148Z,2.93
2023-04-25T09:19:40.417Z,3.00
2023-04-25T09:22:10.354Z,2.80
2023-04-25T09:24:40.403Z,2.60
2023-04-25T09:27:09.949Z,2.60
2023-04-25T09:29:43.100Z,2.50
2023-04-25T09:32:25.358Z,2.50
2023-04-25T09:34:55.807Z,2.20
2023-04-25T09:37:31.375Z,2.42
2023-04-25T09:40:08.333Z,2.20
2023-04-25T09:42:36.601Z,2.30
2023-04-25T09:45:05.602Z,2.37
2023-04-25T09:47:38.926Z,1.98
2023-04-25T09:50:16.613Z,1.52
2023-04-25T09:53:03.940Z,1.50
2023-04-25T09:55:35.660Z,1.83
2023-04-25T09:58:09.755Z,1.40
2023-04-25T10:00:39.031Z,1.17
2023-04-25T10:03:11.881Z,0.90
2023-04-25T10:05:41.979Z,1.15
2023-04-25T10:08:10.283Z,1.20
2023-04-25T10:10:39.557Z,1.33
2023-04-25T10:13:07.476Z,1.10
2023-04-25T10:15:40.060Z,1.12
2023-04-25T10:18:08.679Z,0.70
2023-04-25T10:20:36.590Z,0.77
2023-04-25T10:23:14.299Z,1.00
2023-04-25T10:25:42.989Z,0.70
2023-04-25T10:28:10.828Z,0.60
2023-04-25T10:30:38.734Z,0.70
2023-04-25T10:33:18.582Z,0.67
2023-04-25T10:35:46.309Z,0.60
2023-04-25T10:38:17.042Z,0.45
2023-04-25T10:41:04.000Z,0.40
2023-04-25T10:43:31.849Z,0.30
2023-04-25T10:46:02.719Z,0.43
2023-04-25T10:48:31.837Z,0.32
2023-04-25T10:51:09.156Z,0.40
2023-04-25T10:53:36.951Z,0.30
2023-04-25T10:56:24.388Z,0.50
2023-04-25T10:59:19.349Z,0.40
2023-04-25T11:01:50.280Z,0.50
2023-04-25T11:04:37.406Z,0.40
2023-04-25T11:07:23.885Z,0.35
2023-04-25T11:09:51.503Z,0.50
2023-04-25T11:12:19.433Z,0.30
2023-04-25T11:14:47.095Z,0.30
2023-04-25T11:17:14.724Z,0.40
2023-04-25T11:19:42.665Z,0.50
2023-04-25T11:22:11.697Z,0.50
2023-04-25T11:24:39.329Z,0.40
2023-04-25T11:27:07.305Z,0.70
2023-04-25T11:29:36.013Z,0.60
2023-04-25T11:32:03.824Z,0.60
2023-04-25T11:34:33.249Z,0.50
2023-04-25T11:37:01.772Z,0.60
2023-04-25T11:39:29.831Z,0.60
2023-04-25T11:41:57.837Z,0.55
2023-04-25T11:44:31.022Z,0.68
2023-04-25T11:46:58.930Z,0.60
2023-04-25T11:49:32.399Z,0.60
2023-04-25T11:52:00.903Z,0.60
2023-04-25T11:54:28.484Z,0.50
2023-04-25T11:56:56.099Z,0.50
2023-04-25T11:59:25.276Z,0.90
2023-04-25T12:01:53.352Z,0.50
2023-04-25T12:04:25.922Z,0.60
2023-04-25T12:06:55.181Z,0.70
2023-04-25T12:09:34.000Z,0.45
2023-04-25T12:12:05.458Z,0.73
2023-04-25T12:14:34.844Z,1.00
2023-04-25T12:17:04.877Z,0.65
2023-04-25T12:19:38.296Z,1.05
2023-04-25T12:22:20.922Z,0.70
2023-04-25T12:24:48.745Z,0.60
2023-04-25T12:27:17.471Z,0.63
2023-04-25T12:29:52.785Z,0.70
2023-04-25T12:32:20.560Z,0.88
2023-04-25T12:34:48.110Z,0.60
2023-04-25T12:37:16.083Z,1.02
2023-04-25T12:39:43.976Z,0.90
2023-04-25T12:42:14.220Z,0.80
2023-04-25T12:44:42.372Z,1.15
2023-04-25T12:47:11.041Z,0.60
2023-04-25T12:49:38.928Z,0.95
2023-04-25T12:52:06.582Z,0.80
2023-04-25T12:54:34.471Z,0.73
2023-04-25T12:57:03.951Z,0.85
2023-04-25T12:59:31.861Z,0.70
2023-04-25T13:02:00.567Z,0.75
2023-04-25T13:04:28.699Z,0.80
2023-04-25T13:06:56.625Z,0.73
2023-04-25T13:09:24.554Z,0.80
2023-04-25T13:11:52.349Z,0.80
2023-04-25T13:14:21.337Z,1.08
2023-04-25T13:16:49.571Z,0.77
2023-04-25T13:19:17.300Z,0.90
2023-04-25T13:21:44.882Z,1.35
2023-04-25T13:24:13.077Z,2.40
2023-04-25T13:26:40.702Z,0.80
2023-04-25T13:29:08.303Z,0.70
2023-04-25T13:31:36.195Z,0.80
2023-04-25T13:34:04.724Z,0.85
2023-04-25T13:36:33.968Z,0.95
2023-04-25T13:39:07.858Z,1.10
2023-04-25T13:41:35.871Z,0.80
2023-04-25T13:44:03.734Z,1.00
2023-04-25T13:46:45.477Z,0.80
2023-04-25T13:49:15.594Z,0.52
2023-04-25T13:51:43.518Z,1.00
2023-04-25T13:54:11.552Z,0.70
2023-04-25T13:56:39.605Z,0.80
2023-04-25T13:59:08.455Z,1.20
2023-04-25T14:01:36.960Z,0.80
2023-04-25T14:04:05.563Z,1.77
2023-04-25T14:06:33.986Z,1.20
2023-04-25T14:09:05.544Z,0.80
2023-04-25T14:11:33.420Z,1.23
2023-04-25T14:14:01.063Z,1.00
2023-04-25T14:16:29.321Z,0.95
2023-04-25T14:18:57.263Z,1.30
2023-04-25T14:21:24.996Z,1.20
2023-04-25T14:23:56.864Z,1.10
2023-04-25T14:26:24.735Z,0.90
2023-04-25T14:28:53.106Z,1.08
2023-04-25T14:31:21.011Z,0.70
2023-04-25T14:33:49.148Z,0.82
2023-04-25T14:36:17.188Z,1.12
2023-04-25T14:38:44.923Z,0.70
2023-04-25T14:41:12.909Z,1.20
2023-04-25T14:43:43.370Z,1.10
2023-04-25T14:46:12.024Z,0.90
2023-04-25T14:48:40.209Z,1.15
2023-04-25T14:51:07.977Z,0.90
2023-04-25T14:53:35.616Z,1.02
2023-04-25T14:56:03.887Z,1.20
2023-04-25T14:58:32.384Z,1.40
2023-04-25T15:01:01.016Z,1.10
2023-04-25T15:03:29.004Z,0.95
2023-04-25T15:05:56.881Z,0.85
2023-04-25T15:08:24.447Z,0.70
2023-04-25T15:10:52.358Z,0.90
2023-04-25T15:13:20.378Z,1.27
2023-04-25T15:15:52.175Z,1.20
2023-04-25T15:18:24.730Z,1.17
2023-04-25T15:20:53.189Z,1.33
2023-04-25T15:23:22.426Z,1.10
2023-04-25T15:25:52.124Z,1.62
2023-04-25T15:28:22.220Z,1.90
2023-04-25T15:30:50.723Z,1.98
2023-04-25T15:33:18.261Z,1.80
2023-04-25T15:35:45.780Z,2.03
2023-04-25T15:38:13.857Z,2.08
2023-04-25T15:40:41.533Z,1.70
2023-04-25T15:43:15.746Z,1.50
2023-04-25T15:45:43.854Z,1.23
2023-04-25T15:48:11.930Z,1.25
2023-04-25T15:50:39.644Z,1.77
2023-04-25T15:53:07.596Z,1.40
2023-04-25T15:55:39.006Z,1.30
2023-04-25T15:58:08.590Z,1.60
2023-04-25T16:00:37.922Z,1.62
2023-04-25T16:03:06.449Z,1.42
2023-04-25T16:05:34.270Z,1.40
2023-04-25T16:08:02.107Z,1.50
2023-04-25T16:10:30.192Z,1.30
2023-04-25T16:12:57.808Z,1.65
2023-04-25T16:15:25.689Z,1.80
2023-04-25T16:17:53.586Z,1.70
2023-04-25T16:20:21.215Z,1.90
2023-04-25T16:22:48.790Z,1.90
2023-04-25T16:25:17.168Z,1.70
2023-04-25T16:27:44.654Z,2.70
2023-04-25T16:30:12.431Z,1.80
2023-04-25T16:32:41.764Z,1.62
2023-04-25T16:35:10.904Z,1.27
2023-04-25T16:37:38.553Z,1.40
2023-04-25T16:40:09.854Z,1.40
2023-04-25T16:42:37.447Z,1.37
2023-04-25T16:45:05.498Z,1.58
2023-04-25T16:47:33.461Z,1.93
2023-04-25T16:50:01.658Z,2.90
2023-04-25T16:52:29.276Z,2.75
2023-04-25T16:54:57.360Z,2.87
2023-04-25T16:57:24.919Z,2.15
2023-04-25T16:59:52.617Z,2.40
2023-04-25T17:02:21.214Z,2.20
2023-04-25T17:04:48.902Z,2.05
2023-04-25T17:07:16.812Z,5.95
2023-04-25T17:09:44.763Z,3.42
2023-04-25T17:12:12.542Z,2.10
2023-04-25T17:14:40.132Z,1.98
2023-04-25T17:17:07.998Z,2.20
2023-04-25T17:19:36.436Z,2.45
2023-04-25T17:22:04.257Z,1.80
2023-04-25T17:24:32.180Z,2.30
2023-04-25T17:26:59.729Z,1.98
2023-04-25T17:29:27.997Z,1.92
2023-04-25T17:31:57.158Z,1.80
2023-04-25T17:34:25.685Z,2.17
2023-04-25T17:36:53.150Z,1.70
2023-04-25T17:39:21.579Z,1.80
2023-04-25T17:41:49.247Z,2.10
2023-04-25T17:44:16.768Z,2.20
2023-04-25T17:46:44.693Z,2.08
2023-04-25T17:49:12.345Z,1.90
2023-04-25T17:51:39.951Z,2.05
2023-04-25T17:54:08.350Z,2.08
2023-04-25T17:56:37.582Z,2.20
2023-04-25T17:59:05.082Z,2.28
2023-04-25T18:01:33.201Z,2.53
2023-04-25T18:04:01.751Z,2.28
2023-04-25T18:06:29.693Z,2.30
2023-04-25T18:08:57.381Z,1.95
2023-04-25T18:11:25.508Z,2.33
2023-04-25T18:13:53.231Z,2.40
2023-04-25T18:16:20.895Z,2.20
2023-04-25T18:18:55.242Z,2.60
2023-04-25T18:21:22.954Z,4.43
2023-04-25T18:23:51.267Z,3.15
2023-04-25T18:26:20.235Z,3.00
2023-04-25T18:28:48.190Z,2.42
2023-04-25T18:31:17.392Z,2.92
2023-04-25T18:33:44.988Z,3.10
2023-04-25T18:36:13.404Z,2.42
2023-04-25T18:38:41.690Z,2.50
2023-04-25T18:41:33.809Z,2.37
2023-04-25T18:44:01.166Z,2.50
2023-04-25T18:46:30.965Z,2.10
2023-04-25T18:48:59.554Z,2.58
2023-04-25T18:51:31.646Z,2.20
2023-04-25T18:54:00.264Z,2.10
2023-04-25T18:56:28.122Z,1.87
2023-04-25T18:58:56.441Z,2.10
2023-04-25T19:01:25.533Z,2.40
2023-04-25T19:03:57.166Z,2.13
2023-04-25T19:06:28.861Z,1.73
2023-04-25T19:08:57.541Z,2.42
2023-04-25T19:11:25.441Z,2.12
2023-04-25T19:13:55.547Z,2.00
2023-04-25T19:16:23.823Z,2.10
2023-04-25T19:18:54.340Z,2.08
2023-04-25T19:21:22.605Z,2.05
2023-04-25T19:23:52.972Z,2.33
2023-04-25T19:26:21.105Z,2.00
2023-04-25T19:29:15.208Z,2.13
2023-04-25T19:31:44.714Z,2.15
2023-04-25T19:34:13.182Z,2.50
2023-04-25T19:36:42.361Z,2.05
2023-04-25T19:39:10.893Z,2.30
2023-04-25T19:41:39.067Z,2.20
2023-04-25T19:44:08.543Z,2.12
2023-04-25T19:46:37.125Z,2.10
2023-04-25T19:49:09.064Z,2.20
2023-04-25T19:51:37.239Z,2.10
2023-04-25T19:54:05.450Z,1.80
2023-04-25T19:56:33.103Z,2.40
2023-04-25T19:59:00.962Z,2.47
2023-04-25T20:01:28.843Z,2.50
2023-04-25T20:03:56.895Z,2.12
2023-04-25T20:06:24.712Z,1.87
2023-04-25T20:08:55.379Z,2.10
2023-04-25T20:11:23.855Z,2.45
2023-04-25T20:13:51.571Z,2.15
2023-04-25T20:16:21.167Z,2.10
2023-04-25T20:18:49.381Z,2.40
2023-04-25T20:21:17.481Z,2.10
2023-04-25T20:23:45.963Z,2.03
2023-04-25T20:26:14.162Z,2.20
2023-04-25T20:28:44.852Z,2.25
2023-04-25T20:31:12.538Z,2.30
2023-04-25T20:33:41.771Z,2.28
2023-04-25T20:36:09.991Z,2.50
2023-04-25T20:38:37.768Z,2.30
2023-04-25T20:41:06.055Z,2.10
2023-04-25T20:43:33.585Z,2.03
2023-04-25T20:46:01.081Z,2.17
2023-04-25T20:48:28.911Z,2.20
2023-04-25T20:50:57.122Z,2.47
2023-04-25T20:53:24.749Z,2.33
2023-04-25T20:55:52.700Z,2.10
2023-04-25T20:58:20.794Z,2.17
2023-04-25T21:00:48.996Z,2.55
2023-04-25T21:03:17.382Z,2.58
2023-04-25T21:05:45.108Z,2.35
2023-04-25T21:08:12.787Z,2.30
2023-04-25T21:10:41.198Z,2.28
2023-04-25T21:13:09.101Z,2.62
2023-04-25T21:15:36.568Z,2.50
2023-04-25T21:18:04.620Z,2.70
2023-04-25T21:20:32.598Z,2.80
2023-04-25T21:23:00.145Z,2.60
2023-04-25T21:25:31.753Z,2.97
2023-04-25T21:28:00.316Z,2.65
2023-04-25T21:30:28.556Z,2.75
2023-04-25T21:32:56.716Z,2.67
2023-04-25T21:35:24.584Z,2.75
2023-04-25T21:37:52.785Z,2.58
2023-04-25T21:40:20.839Z,2.22
2023-04-25T21:42:53.329Z,2.42
2023-04-25T21:45:21.483Z,2.33
2023-04-25T21:47:49.278Z,2.30
2023-04-25T21:50:17.425Z,2.60
2023-04-25T21:52:45.356Z,2.67
2023-04-25T21:55:12.900Z,2.90
2023-04-25T21:57:41.194Z,2.30
2023-04-25T22:00:25.134Z,2.42
2023-04-25T22:02:56.653Z,2.70
2023-04-25T22:05:26.506Z,2.53
2023-04-25T22:07:57.046Z,2.95
2023-04-25T22:10:25.212Z,2.57
2023-04-25T22:12:52.968Z,2.90
2023-04-25T22:15:23.574Z,3.20
2023-04-25T22:17:52.617Z,3.10
2023-04-25T22:20:24.112Z,3.33
2023-04-25T22:22:52.820Z,3.00
2023-04-25T22:25:21.189Z,3.35
2023-04-25T22:27:49.407Z,3.03
2023-04-25T22:30:17.418Z,2.95
2023-04-25T22:32:45.014Z,3.10
2023-04-25T22:35:12.563Z,3.30
2023-04-25T22:37:41.355Z,3.47
2023-04-25T22:40:09.364Z,3.47
2023-04-25T22:42:40.260Z,3.17
2023-04-25T22:45:08.931Z,3.55
2023-04-25T22:47:37.810Z,3.30
2023-04-25T22:50:13.483Z,3.35
2023-04-25T22:52:42.615Z,3.25
2023-04-25T22:55:12.364Z,3.25
2023-04-25T22:57:40.579Z,3.25
2023-04-25T23:00:35.592Z,3.40
2023-04-25T23:03:04.070Z,3.37
2023-04-25T23:05:32.974Z,3.28
2023-04-25T23:08:00.604Z,3.45
2023-04-25T23:10:28.669Z,3.30
2023-04-25T23:13:00.413Z,3.57
2023-04-25T23:15:30.930Z,3.47
2023-04-25T23:17:59.094Z,4.00
2023-04-25T23:20:27.558Z,3.92
2023-04-25T23:22:55.168Z,3.90
2023-04-25T23:25:23.224Z,3.60
2023-04-25T23:27:50.707Z,3.42
2023-04-25T23:30:18.556Z,3.90
2023-04-25T23:32:46.476Z,3.55
2023-04-25T23:35:14.668Z,3.97
2023-04-25T23:37:42.436Z,3.93
2023-04-25T23:40:10.587Z,4.25
2023-04-25T23:42:39.843Z,4.40
2023-04-25T23:45:08.387Z,4.25
2023-04-25T23:47:36.414Z,4.10
2023-04-25T23:50:04.416Z,4.20
2023-04-25T23:52:32.123Z,4.30
2023-04-25T23:55:00.281Z,3.90
2023-04-25T23:57:27.856Z,4.18
2023-04-25T23:59:57.113Z,4.15
